Time;durP1;ratioP1;P1;durP2;ratioP2;P2;SDS_P1;SDS_P2;PMS_P1;PMS_P2;Temp;Humidity;BMP_temperature;BMP_pressure;BME280_temperature;BME280_humidity;BME280_pressure;Samples;Min_cycle;Max_cycle;Signal;HPM_P1;HPM_P2
2021/07/17 00:00:58;;;;;;;;;;;13.40;91.00;;;;;;5074562;28;19915;-65
2021/07/17 00:03:24;;;;;;;;;;;13.40;90.30;;;;;;5073978;28;20355;-64
2021/07/17 00:05:51;;;;;;;;;;;13.40;90.60;;;;;;5073542;28;20382;-64
2021/07/17 00:08:18;;;;;;;;;;;13.40;87.70;;;;;;5073466;28;19909;-65
2021/07/17 00:10:47;;;;;;;;;;;13.50;90.30;;;;;;5073605;28;19908;-64
2021/07/17 00:13:14;;;;;;;;;;;13.60;89.90;;;;;;5073387;28;19940;-65
2021/07/17 00:15:41;;;;;;;;;;;13.50;88.00;;;;;;5073144;28;20481;-64
2021/07/17 00:18:08;;;;;;;;;;;13.60;86.40;;;;;;5073470;28;19989;-63
2021/07/17 00:20:35;;;;;;;;;;;13.70;88.20;;;;;;5073266;28;19908;-64
2021/07/17 00:23:02;;;;;;;;;;;13.60;86.80;;;;;;5073179;28;19927;-64
2021/07/17 00:25:29;;;;;;;;;;;13.50;86.90;;;;;;5073226;28;19979;-66
2021/07/17 00:27:58;;;;;;;;;;;13.50;87.10;;;;;;5105284;28;19912;-64
2021/07/17 00:30:24;;;;;;;;;;;13.50;88.50;;;;;;5073069;28;19970;-65
2021/07/17 00:32:52;;;;;;;;;;;13.50;86.90;;;;;;5072905;28;20283;-64
2021/07/17 00:35:19;;;;;;;;;;;13.70;87.10;;;;;;5073124;28;19912;-64
2021/07/17 00:37:46;;;;;;;;;;;13.80;85.50;;;;;;5072707;28;19991;-65
2021/07/17 00:40:14;;;;;;;;;;;13.90;83.80;;;;;;5072975;28;20003;-66
2021/07/17 00:42:42;;;;;;;;;;;13.80;84.70;;;;;;5072216;28;19916;-64
2021/07/17 00:45:09;;;;;;;;;;;13.80;87.50;;;;;;5072772;28;20294;-66
2021/07/17 00:47:36;;;;;;;;;;;13.90;85.30;;;;;;5072525;28;20378;-65
2021/07/17 00:50:11;;;;;;;;;;;14.10;87.00;;;;;;5072833;28;19951;-66
2021/07/17 00:52:38;;;;;;;;;;;14.00;84.90;;;;;;5072474;28;19983;-66
2021/07/17 00:55:05;;;;;;;;;;;14.10;85.10;;;;;;5072685;28;20000;-64
2021/07/17 00:57:33;;;;;;;;;;;14.10;84.10;;;;;;5072366;28;19962;-64
2021/07/17 01:00:01;;;;;;;;;;;14.20;84.00;;;;;;5072375;28;19919;-66
2021/07/17 01:02:29;;;;;;;;;;;14.20;82.70;;;;;;5072336;28;19908;-65
2021/07/17 01:04:56;;;;;;;;;;;14.40;82.60;;;;;;5073738;28;19958;-64
2021/07/17 01:07:25;;;;;;;;;;;14.40;83.30;;;;;;5073342;28;20301;-65
2021/07/17 01:09:52;;;;;;;;;;;14.70;81.70;;;;;;5072927;28;20067;-63
2021/07/17 01:12:19;;;;;;;;;;;14.60;79.10;;;;;;5072303;28;19966;-65
2021/07/17 01:14:46;;;;;;;;;;;14.80;80.80;;;;;;5072512;28;19909;-64
2021/07/17 01:17:13;;;;;;;;;;;14.80;77.90;;;;;;5071275;28;19912;-64
2021/07/17 01:19:40;;;;;;;;;;;14.90;79.90;;;;;;5072356;28;20003;-65
2021/07/17 01:22:06;;;;;;;;;;;15.10;76.90;;;;;;5072379;28;19912;-63
2021/07/17 01:24:33;;;;;;;;;;;15.10;78.90;;;;;;5072366;28;20005;-64
2021/07/17 01:27:00;;;;;;;;;;;15.40;77.10;;;;;;5072187;28;19908;-64
2021/07/17 01:29:27;;;;;;;;;;;15.40;78.30;;;;;;5072451;28;19931;-64
2021/07/17 01:31:53;;;;;;;;;;;15.10;79.30;;;;;;5072112;28;19912;-64
2021/07/17 01:34:20;;;;;;;;;;;15.10;79.60;;;;;;5072280;28;19956;-65
2021/07/17 01:36:47;;;;;;;;;;;14.60;76.70;;;;;;5072288;28;20282;-64
2021/07/17 01:39:13;;;;;;;;;;;14.30;79.70;;;;;;5072267;28;19915;-65
2021/07/17 01:41:40;;;;;;;;;;;14.20;81.30;;;;;;5071808;28;19908;-64
2021/07/17 01:44:07;;;;;;;;;;;14.00;79.50;;;;;;5071942;28;19921;-64
2021/07/17 01:46:34;;;;;;;;;;;14.10;80.50;;;;;;5072305;28;19909;-63
2021/07/17 01:49:01;;;;;;;;;;;14.00;81.60;;;;;;5071343;28;19923;-64
2021/07/17 01:51:27;;;;;;;;;;;14.00;82.60;;;;;;5071909;28;19908;-64
2021/07/17 01:53:57;;;;;;;;;;;14.20;82.30;;;;;;5072161;28;19912;-65
2021/07/17 01:56:25;;;;;;;;;;;14.30;82.00;;;;;;5075913;28;19908;-64
2021/07/17 01:58:52;;;;;;;;;;;13.90;80.20;;;;;;5076002;28;19912;-65
2021/07/17 02:01:19;;;;;;;;;;;13.80;83.20;;;;;;5075986;28;20355;-64
2021/07/17 02:03:46;;;;;;;;;;;14.00;83.20;;;;;;5091239;28;19908;-64
2021/07/17 02:06:13;;;;;;;;;;;14.00;82.60;;;;;;5075841;28;19908;-63
2021/07/17 02:08:43;;;;;;;;;;;14.00;82.60;;;;;;5075848;28;19909;-63
2021/07/17 02:11:09;;;;;;;;;;;14.10;83.70;;;;;;5075685;28;20256;-63
2021/07/17 02:13:36;;;;;;;;;;;14.00;81.50;;;;;;5075647;28;20027;-65
2021/07/17 02:16:03;;;;;;;;;;;13.80;82.10;;;;;;5075631;28;19908;-65
2021/07/17 02:18:32;;;;;;;;;;;13.70;82.10;;;;;;5075792;28;19932;-64
2021/07/17 02:21:06;;;;;;;;;;;13.90;84.60;;;;;;5075546;28;19912;-64
2021/07/17 02:23:33;;;;;;;;;;;14.00;83.00;;;;;;5075463;28;19908;-64
2021/07/17 02:25:59;;;;;;;;;;;13.70;84.80;;;;;;5075320;28;20003;-64
2021/07/17 02:28:26;;;;;;;;;;;14.00;82.80;;;;;;5075613;28;19908;-65
2021/07/17 02:30:53;;;;;;;;;;;14.10;81.30;;;;;;5075283;28;19915;-65
2021/07/17 02:33:20;;;;;;;;;;;14.10;83.10;;;;;;5075501;28;19939;-65
2021/07/17 02:35:47;;;;;;;;;;;14.30;83.00;;;;;;5075068;28;19912;-65
2021/07/17 02:38:14;;;;;;;;;;;14.30;82.40;;;;;;5075188;28;19909;-67
2021/07/17 02:40:41;;;;;;;;;;;14.00;81.90;;;;;;5091190;28;20290;-65
2021/07/17 02:43:07;;;;;;;;;;;13.80;80.90;;;;;;5075466;28;19912;-65
2021/07/17 02:45:34;;;;;;;;;;;13.90;81.30;;;;;;5075170;28;20329;-65
2021/07/17 02:48:01;;;;;;;;;;;14.00;81.40;;;;;;5075014;28;19912;-65
2021/07/17 02:50:28;;;;;;;;;;;13.80;82.60;;;;;;5074959;28;20399;-65
2021/07/17 02:52:54;;;;;;;;;;;14.00;85.50;;;;;;5074937;28;19974;-66
2021/07/17 02:55:21;;;;;;;;;;;13.90;83.60;;;;;;5074740;28;19912;-65
2021/07/17 02:57:48;;;;;;;;;;;13.80;83.60;;;;;;5074608;28;20359;-64
2021/07/17 03:00:14;;;;;;;;;;;14.00;83.60;;;;;;5074963;28;19909;-65
2021/07/17 03:02:41;;;;;;;;;;;14.10;81.60;;;;;;5074749;28;19912;-65
2021/07/17 03:05:08;;;;;;;;;;;14.00;80.30;;;;;;5074525;28;19916;-65
2021/07/17 03:07:35;;;;;;;;;;;14.00;81.30;;;;;;5074745;28;20363;-64
2021/07/17 03:10:03;;;;;;;;;;;13.90;82.80;;;;;;5074503;28;19908;-65
2021/07/17 03:12:29;;;;;;;;;;;13.90;82.70;;;;;;5074535;28;19987;-65
2021/07/17 03:14:56;;;;;;;;;;;14.00;81.50;;;;;;5074668;28;20007;-64
2021/07/17 03:17:23;;;;;;;;;;;13.80;81.20;;;;;;5074487;28;19909;-65
2021/07/17 03:19:49;;;;;;;;;;;13.80;83.10;;;;;;5074603;28;19951;-64
2021/07/17 03:22:16;;;;;;;;;;;13.80;81.90;;;;;;5074432;28;19988;-65
2021/07/17 03:24:43;;;;;;;;;;;13.70;82.50;;;;;;5074283;28;20282;-65
2021/07/17 03:27:09;;;;;;;;;;;13.80;82.50;;;;;;5074385;28;19909;-65
2021/07/17 03:29:36;;;;;;;;;;;13.80;81.70;;;;;;5074189;28;19908;-66
2021/07/17 03:32:03;;;;;;;;;;;13.80;82.20;;;;;;5074173;28;19919;-66
2021/07/17 03:34:29;;;;;;;;;;;13.80;82.30;;;;;;5074225;28;19913;-64
2021/07/17 03:36:56;;;;;;;;;;;13.90;82.80;;;;;;5072895;28;20278;-64
2021/07/17 03:39:23;;;;;;;;;;;13.90;83.10;;;;;;5074348;28;19908;-64
2021/07/17 03:41:49;;;;;;;;;;;13.90;81.00;;;;;;5073850;28;19909;-64
2021/07/17 03:44:17;;;;;;;;;;;13.90;81.60;;;;;;5073809;28;19925;-66
2021/07/17 03:46:43;;;;;;;;;;;13.90;83.20;;;;;;5073965;28;19908;-65
2021/07/17 03:49:10;;;;;;;;;;;13.90;83.40;;;;;;5073888;28;19916;-64
2021/07/17 03:51:37;;;;;;;;;;;13.90;81.00;;;;;;5073580;28;19909;-64
2021/07/17 03:54:03;;;;;;;;;;;13.90;80.50;;;;;;5073842;28;20355;-63
2021/07/17 03:56:30;;;;;;;;;;;13.80;80.70;;;;;;5073626;28;20003;-65
2021/07/17 03:58:57;;;;;;;;;;;13.70;82.00;;;;;;5073785;28;19908;-65
2021/07/17 04:01:23;;;;;;;;;;;13.60;81.20;;;;;;5073637;28;19915;-63
2021/07/17 04:03:51;;;;;;;;;;;13.50;83.80;;;;;;5073556;28;20023;-64
2021/07/17 04:06:17;;;;;;;;;;;13.60;79.10;;;;;;5073757;28;19909;-64
2021/07/17 04:08:44;;;;;;;;;;;13.40;79.40;;;;;;5073626;28;19916;-64
2021/07/17 04:11:10;;;;;;;;;;;13.60;81.20;;;;;;5073403;28;19962;-65
2021/07/17 04:13:37;;;;;;;;;;;13.70;79.80;;;;;;5073425;28;20019;-65
2021/07/17 04:16:04;;;;;;;;;;;13.60;80.10;;;;;;5073843;28;19912;-64
2021/07/17 04:18:30;;;;;;;;;;;13.50;82.80;;;;;;5073529;28;19931;-65
2021/07/17 04:20:57;;;;;;;;;;;13.60;81.60;;;;;;5074050;28;19909;-63
2021/07/17 04:23:26;;;;;;;;;;;13.50;81.20;;;;;;5073344;28;19908;-64
2021/07/17 04:25:53;;;;;;;;;;;13.60;78.70;;;;;;5072911;28;19912;-64
2021/07/17 04:28:20;;;;;;;;;;;13.50;79.40;;;;;;5073160;28;19908;-64
2021/07/17 04:30:47;;;;;;;;;;;13.60;82.10;;;;;;5072639;28;19927;-64
2021/07/17 04:33:13;;;;;;;;;;;13.60;78.70;;;;;;5105546;28;20020;-65
2021/07/17 04:35:41;;;;;;;;;;;13.60;79.70;;;;;;5072863;28;20434;-64
2021/07/17 04:38:08;;;;;;;;;;;13.50;79.20;;;;;;5072940;28;20015;-64
2021/07/17 04:40:35;;;;;;;;;;;13.50;82.30;;;;;;5072979;28;19920;-64
2021/07/17 04:43:01;;;;;;;;;;;13.60;80.40;;;;;;5072972;28;19943;-64
2021/07/17 04:45:28;;;;;;;;;;;13.60;81.50;;;;;;5072969;28;19917;-64
2021/07/17 04:47:55;;;;;;;;;;;13.50;83.40;;;;;;5072656;28;19953;-65
2021/07/17 04:50:21;;;;;;;;;;;13.50;83.10;;;;;;5072808;28;19919;-64
2021/07/17 04:52:49;;;;;;;;;;;13.60;81.00;;;;;;5072782;28;20029;-65
2021/07/17 04:55:16;;;;;;;;;;;13.60;82.70;;;;;;5072557;28;19909;-65
2021/07/17 04:57:43;;;;;;;;;;;13.50;79.30;;;;;;5072497;28;19908;-63
2021/07/17 05:00:10;;;;;;;;;;;13.40;81.20;;;;;;5072602;28;19908;-64
2021/07/17 05:02:50;;;;;;;;;;;13.40;77.50;;;;;;5072791;28;19908;-63
2021/07/17 05:05:17;;;;;;;;;;;13.40;78.50;;;;;;5072219;28;19908;-65
2021/07/17 05:07:44;;;;;;;;;;;13.30;78.50;;;;;;5072190;28;19909;-64
2021/07/17 05:10:12;;;;;;;;;;;13.30;78.60;;;;;;5072566;28;20007;-63
2021/07/17 05:12:39;;;;;;;;;;;13.20;77.40;;;;;;5072822;28;19917;-64
2021/07/17 05:15:09;;;;;;;;;;;13.20;80.00;;;;;;5072679;28;20011;-64
2021/07/17 05:17:36;;;;;;;;;;;13.20;78.30;;;;;;5071130;28;20003;-64
2021/07/17 05:20:04;;;;;;;;;;;13.30;78.50;;;;;;5072663;28;19909;-63
2021/07/17 05:22:30;;;;;;;;;;;13.30;80.00;;;;;;5072399;28;19919;-64
2021/07/17 05:24:57;;;;;;;;;;;13.30;77.40;;;;;;5072073;28;19915;-63
2021/07/17 05:27:23;;;;;;;;;;;13.30;78.90;;;;;;5072360;28;20298;-64
2021/07/17 05:29:50;;;;;;;;;;;13.20;79.50;;;;;;5071223;28;20282;-64
2021/07/17 05:32:17;;;;;;;;;;;13.40;80.20;;;;;;5071208;28;19917;-65
2021/07/17 05:34:44;;;;;;;;;;;13.50;79.30;;;;;;5072272;28;19909;-65
2021/07/17 05:37:11;;;;;;;;;;;13.40;78.60;;;;;;5072392;28;19955;-66
2021/07/17 05:39:38;;;;;;;;;;;13.30;79.70;;;;;;5071884;28;20088;-64
2021/07/17 05:42:05;;;;;;;;;;;13.40;80.30;;;;;;5072211;28;19915;-64
2021/07/17 05:44:34;;;;;;;;;;;13.40;78.40;;;;;;5072047;28;20381;-64
2021/07/17 05:47:01;;;;;;;;;;;13.40;77.80;;;;;;5072229;28;19967;-63
2021/07/17 05:49:30;;;;;;;;;;;13.30;78.60;;;;;;5074284;28;19909;-64
2021/07/17 05:51:58;;;;;;;;;;;13.10;79.50;;;;;;5072470;28;19960;-63
2021/07/17 05:54:32;;;;;;;;;;;13.10;79.50;;;;;;5073926;28;19913;-63
2021/07/17 05:57:00;;;;;;;;;;;13.00;79.20;;;;;;5105278;28;19912;-63
2021/07/17 05:59:29;;;;;;;;;;;12.90;79.50;;;;;;5104474;28;19912;-63
2021/07/17 06:01:58;;;;;;;;;;;12.90;80.80;;;;;;5071862;28;19909;-64
2021/07/17 06:04:25;;;;;;;;;;;13.00;81.50;;;;;;5104185;28;19913;-64
2021/07/17 06:06:51;;;;;;;;;;;13.00;81.90;;;;;;5104407;28;19999;-63
2021/07/17 06:09:18;;;;;;;;;;;13.00;82.50;;;;;;5072016;28;19909;-64
2021/07/17 06:11:44;;;;;;;;;;;13.10;81.90;;;;;;5071778;28;20014;-64
2021/07/17 06:14:11;;;;;;;;;;;13.10;82.20;;;;;;5071941;28;20353;-63
2021/07/17 06:16:38;;;;;;;;;;;13.10;81.70;;;;;;5071785;28;19909;-64
2021/07/17 06:19:05;;;;;;;;;;;13.20;81.30;;;;;;5071955;28;19986;-65
2021/07/17 06:21:32;;;;;;;;;;;13.20;80.90;;;;;;5071799;28;20267;-63
2021/07/17 06:23:58;;;;;;;;;;;13.30;83.00;;;;;;5071655;28;20371;-63
2021/07/17 06:26:25;;;;;;;;;;;13.30;81.00;;;;;;5072004;28;19951;-63
2021/07/17 06:28:52;;;;;;;;;;;13.30;80.60;;;;;;5072007;28;19915;-64
2021/07/17 06:31:19;;;;;;;;;;;13.20;80.00;;;;;;5071831;28;19912;-64
2021/07/17 06:33:46;;;;;;;;;;;13.20;81.30;;;;;;5071502;28;19923;-64
2021/07/17 06:36:13;;;;;;;;;;;13.10;79.90;;;;;;5071910;28;19908;-63
2021/07/17 06:38:40;;;;;;;;;;;13.10;80.10;;;;;;5071553;28;19908;-64
2021/07/17 06:41:06;;;;;;;;;;;13.00;80.20;;;;;;5073766;28;19912;-63
2021/07/17 06:43:33;;;;;;;;;;;13.00;81.40;;;;;;5074823;28;19921;-65
2021/07/17 06:46:00;;;;;;;;;;;13.00;79.80;;;;;;5075324;28;19908;-63
2021/07/17 06:48:26;;;;;;;;;;;12.90;81.10;;;;;;5075469;28;20361;-64
2021/07/17 06:50:53;;;;;;;;;;;12.90;80.90;;;;;;5075234;28;19917;-63
2021/07/17 06:53:20;;;;;;;;;;;12.80;80.90;;;;;;5075156;28;19917;-64
2021/07/17 06:55:47;;;;;;;;;;;12.70;82.00;;;;;;5074861;28;19995;-65
2021/07/17 06:58:14;;;;;;;;;;;12.70;81.70;;;;;;5075105;28;19909;-65
2021/07/17 07:00:40;;;;;;;;;;;12.70;80.70;;;;;;5075031;28;20278;-66
2021/07/17 07:03:07;;;;;;;;;;;12.60;81.50;;;;;;5075136;28;20355;-65
2021/07/17 07:05:34;;;;;;;;;;;12.60;83.20;;;;;;5074972;28;19908;-66
2021/07/17 07:08:00;;;;;;;;;;;12.60;82.40;;;;;;5075167;28;19909;-66
2021/07/17 07:10:27;;;;;;;;;;;12.60;82.90;;;;;;5074895;28;20359;-64
2021/07/17 07:12:54;;;;;;;;;;;12.60;84.20;;;;;;5074607;28;19927;-65
2021/07/17 07:15:20;;;;;;;;;;;12.60;83.20;;;;;;5074652;28;19909;-64
2021/07/17 07:17:47;;;;;;;;;;;12.50;83.90;;;;;;5074534;28;19909;-65
2021/07/17 07:20:14;;;;;;;;;;;12.50;84.20;;;;;;5074680;28;19915;-66
2021/07/17 07:22:41;;;;;;;;;;;12.50;84.90;;;;;;5074696;28;19913;-66
2021/07/17 07:25:09;;;;;;;;;;;12.50;85.80;;;;;;5074364;28;20385;-64
2021/07/17 07:27:35;;;;;;;;;;;12.50;84.80;;;;;;5074507;28;19912;-66
2021/07/17 07:30:03;;;;;;;;;;;12.50;85.20;;;;;;5075015;28;19908;-67
2021/07/17 07:32:30;;;;;;;;;;;12.50;86.00;;;;;;5075829;28;19917;-65
2021/07/17 07:34:57;;;;;;;;;;;12.50;86.50;;;;;;5075343;28;19916;-67
2021/07/17 07:37:25;;;;;;;;;;;12.40;85.20;;;;;;5074657;28;19916;-66
2021/07/17 07:39:53;;;;;;;;;;;12.40;86.50;;;;;;5074312;28;19966;-65
2021/07/17 07:42:19;;;;;;;;;;;12.40;85.80;;;;;;5075082;28;20256;-66
2021/07/17 07:44:46;;;;;;;;;;;12.40;87.10;;;;;;5075235;28;19921;-65
2021/07/17 07:47:13;;;;;;;;;;;12.30;87.60;;;;;;5075451;28;19908;-65
2021/07/17 07:49:39;;;;;;;;;;;12.30;88.50;;;;;;5076334;28;19916;-64
2021/07/17 07:52:06;;;;;;;;;;;12.30;86.40;;;;;;5073384;28;20006;-65
2021/07/17 07:54:33;;;;;;;;;;;12.30;87.10;;;;;;5074146;28;19917;-65
2021/07/17 07:56:59;;;;;;;;;;;12.30;87.30;;;;;;5073867;28;20378;-66
2021/07/17 07:59:26;;;;;;;;;;;12.30;88.40;;;;;;5074040;28;19959;-64
2021/07/17 08:01:53;;;;;;;;;;;12.20;88.00;;;;;;5073875;28;19908;-64
2021/07/17 08:04:19;;;;;;;;;;;12.10;89.00;;;;;;5073591;28;19909;-64
2021/07/17 08:06:46;;;;;;;;;;;12.10;89.10;;;;;;5073557;28;20316;-66
2021/07/17 08:09:13;;;;;;;;;;;12.10;89.40;;;;;;5073491;28;19915;-66
2021/07/17 08:11:40;;;;;;;;;;;12.10;89.10;;;;;;5073348;28;20264;-66
2021/07/17 08:14:06;;;;;;;;;;;12.00;89.70;;;;;;5073086;28;19920;-66
2021/07/17 08:16:33;;;;;;;;;;;12.10;89.90;;;;;;5073446;28;20281;-66
2021/07/17 08:19:00;;;;;;;;;;;12.00;90.30;;;;;;5073474;28;19915;-66
2021/07/17 08:21:26;;;;;;;;;;;12.00;90.30;;;;;;5072350;28;19963;-63
2021/07/17 08:23:53;;;;;;;;;;;12.00;90.50;;;;;;5105825;28;19913;-65
2021/07/17 08:26:20;;;;;;;;;;;12.10;91.20;;;;;;5073374;28;20337;-63
2021/07/17 08:28:46;;;;;;;;;;;12.00;90.80;;;;;;5072950;28;19916;-64
2021/07/17 08:31:13;;;;;;;;;;;12.00;90.90;;;;;;5073532;28;19909;-66
2021/07/17 08:33:40;;;;;;;;;;;11.90;90.80;;;;;;5105827;28;20412;-66
2021/07/17 08:36:07;;;;;;;;;;;11.80;91.80;;;;;;5073443;28;19909;-64
2021/07/17 08:38:33;;;;;;;;;;;11.80;91.70;;;;;;5073288;28;19959;-65
2021/07/17 08:41:01;;;;;;;;;;;11.90;91.70;;;;;;5073174;28;19909;-64
2021/07/17 08:43:28;;;;;;;;;;;11.90;91.80;;;;;;5071129;28;19916;-65
2021/07/17 08:45:55;;;;;;;;;;;11.80;91.60;;;;;;5105384;28;19913;-65
2021/07/17 08:48:22;;;;;;;;;;;11.80;92.00;;;;;;5073078;28;19912;-65
2021/07/17 08:50:48;;;;;;;;;;;11.80;92.20;;;;;;5072058;28;19908;-66
2021/07/17 08:53:18;;;;;;;;;;;11.90;93.10;;;;;;5072874;28;19923;-65
2021/07/17 08:55:45;;;;;;;;;;;11.90;92.10;;;;;;5072733;28;19916;-66
2021/07/17 08:58:12;;;;;;;;;;;11.80;92.80;;;;;;5072263;28;19923;-66
2021/07/17 09:00:40;;;;;;;;;;;11.90;92.80;;;;;;5072636;28;19941;-66
2021/07/17 09:03:08;;;;;;;;;;;11.90;92.90;;;;;;5072296;28;19908;-67
2021/07/17 09:05:42;;;;;;;;;;;12.00;93.00;;;;;;5072934;28;19954;-66
2021/07/17 09:08:09;;;;;;;;;;;11.90;93.40;;;;;;5074896;28;19915;-67
2021/07/17 09:10:40;;;;;;;;;;;11.90;92.80;;;;;;5073078;28;19909;-66
2021/07/17 09:13:10;;;;;;;;;;;11.90;93.30;;;;;;5071809;28;20003;-66
2021/07/17 09:15:38;;;;;;;;;;;11.90;92.60;;;;;;5072199;28;20394;-65
2021/07/17 09:18:08;;;;;;;;;;;11.80;93.20;;;;;;5072616;28;20236;-66
2021/07/17 09:20:36;;;;;;;;;;;11.80;92.50;;;;;;5072450;28;19908;-65
2021/07/17 09:23:04;;;;;;;;;;;11.80;92.70;;;;;;5104805;28;19908;-65
2021/07/17 09:25:35;;;;;;;;;;;11.80;92.60;;;;;;5072221;28;19909;-65
2021/07/17 09:28:34;;;;;;;;;;;11.80;93.10;;;;;;5072235;28;19912;-64
2021/07/17 09:31:01;;;;;;;;;;;11.80;93.50;;;;;;5060070;28;19908;-65
2021/07/17 09:33:28;;;;;;;;;;;11.80;93.10;;;;;;5072463;28;19934;-66
2021/07/17 09:35:56;;;;;;;;;;;11.80;93.80;;;;;;5072228;28;19915;-66
2021/07/17 09:38:24;;;;;;;;;;;11.80;93.60;;;;;;5072016;28;20310;-67
2021/07/17 09:40:52;;;;;;;;;;;11.80;93.70;;;;;;5071546;28;19915;-65
2021/07/17 09:43:29;;;;;;;;;;;11.80;93.50;;;;;;5072172;28;20003;-65
2021/07/17 09:45:55;;;;;;;;;;;11.80;93.50;;;;;;5072332;28;19981;-66
2021/07/17 09:48:22;;;;;;;;;;;11.80;94.00;;;;;;5072049;28;19912;-65
2021/07/17 09:50:49;;;;;;;;;;;11.80;93.90;;;;;;5072131;28;19935;-64
2021/07/17 09:53:34;;;;;;;;;;;11.80;94.10;;;;;;5071810;28;19916;-66
2021/07/17 09:56:07;;;;;;;;;;;11.80;94.00;;;;;;5071760;28;19954;-64
2021/07/17 09:58:34;;;;;;;;;;;11.80;94.40;;;;;;5072071;28;19908;-66
2021/07/17 10:01:20;;;;;;;;;;;11.80;94.70;;;;;;5072227;28;19916;-66
2021/07/17 10:03:48;;;;;;;;;;;11.70;94.80;;;;;;5071827;28;19977;-65
2021/07/17 10:06:31;;;;;;;;;;;11.70;94.70;;;;;;5071931;28;20374;-65
2021/07/17 10:09:18;;;;;;;;;;;11.80;94.80;;;;;;5071850;28;20004;-65
2021/07/17 10:11:51;;;;;;;;;;;11.80;94.90;;;;;;5071502;28;19967;-65
2021/07/17 10:14:28;;;;;;;;;;;11.80;94.90;;;;;;5071826;28;19913;-65
2021/07/17 10:16:58;;;;;;;;;;;11.70;94.60;;;;;;5075262;28;20290;-64
2021/07/17 10:19:26;;;;;;;;;;;11.80;95.20;;;;;;5075626;28;19908;-65
2021/07/17 10:21:53;;;;;;;;;;;11.80;95.30;;;;;;5075196;28;19915;-64
2021/07/17 10:24:20;;;;;;;;;;;11.80;94.90;;;;;;5075391;28;20324;-64
2021/07/17 10:26:48;;;;;;;;;;;11.80;95.10;;;;;;5074840;28;20290;-64
2021/07/17 10:29:16;;;;;;;;;;;11.80;95.10;;;;;;5075508;28;19908;-64
2021/07/17 10:31:43;;;;;;;;;;;11.80;95.40;;;;;;5075095;28;19908;-64
2021/07/17 10:34:10;;;;;;;;;;;11.80;95.70;;;;;;5075352;28;20264;-66
2021/07/17 10:36:42;;;;;;;;;;;11.70;95.30;;;;;;5075436;28;20279;-65
2021/07/17 10:39:09;;;;;;;;;;;11.60;95.60;;;;;;5074888;28;19912;-64
2021/07/17 10:41:37;;;;;;;;;;;11.60;95.20;;;;;;5075200;28;19954;-64
2021/07/17 10:44:04;;;;;;;;;;;11.60;95.60;;;;;;5075094;28;20387;-66
2021/07/17 10:46:56;;;;;;;;;;;11.60;95.60;;;;;;5075050;28;19909;-66
2021/07/17 10:49:34;;;;;;;;;;;11.60;95.50;;;;;;5073975;28;19908;-64
2021/07/17 10:52:01;;;;;;;;;;;11.50;96.00;;;;;;5074949;28;19939;-64
2021/07/17 10:54:28;;;;;;;;;;;11.60;96.10;;;;;;5074953;28;19912;-65
2021/07/17 10:56:55;;;;;;;;;;;11.60;96.20;;;;;;5075030;28;20267;-65
2021/07/17 10:59:22;;;;;;;;;;;11.60;96.20;;;;;;5074688;28;19912;-65
2021/07/17 11:02:01;;;;;;;;;;;11.60;96.70;;;;;;5074648;28;19982;-65
2021/07/17 11:04:34;;;;;;;;;;;11.60;96.60;;;;;;5107356;28;20337;-65
2021/07/17 11:07:16;;;;;;;;;;;11.60;96.60;;;;;;5074799;28;19908;-64
2021/07/17 11:09:52;;;;;;;;;;;11.60;96.50;;;;;;5074629;28;19914;-65
2021/07/17 11:12:20;;;;;;;;;;;11.60;96.90;;;;;;5074512;28;20003;-64
2021/07/17 11:14:46;;;;;;;;;;;11.50;96.50;;;;;;5074417;28;20363;-66
2021/07/17 11:17:13;;;;;;;;;;;11.60;97.00;;;;;;5073917;28;19915;-68
2021/07/17 11:19:40;;;;;;;;;;;11.50;96.80;;;;;;5074521;28;19916;-64
2021/07/17 11:22:11;;;;;;;;;;;11.60;96.40;;;;;;5074288;28;19912;-65
2021/07/17 11:24:37;;;;;;;;;;;11.60;96.40;;;;;;5074528;28;19944;-65
2021/07/17 11:27:11;;;;;;;;;;;11.60;96.80;;;;;;5074297;28;19955;-64
2021/07/17 11:29:42;;;;;;;;;;;11.60;96.90;;;;;;5074314;28;20003;-66
2021/07/17 11:32:09;;;;;;;;;;;11.60;96.40;;;;;;5073591;28;19916;-64
2021/07/17 11:34:40;;;;;;;;;;;11.60;96.40;;;;;;5074338;28;19909;-65
2021/07/17 11:37:07;;;;;;;;;;;11.60;96.90;;;;;;5073966;28;20264;-65
2021/07/17 11:39:39;;;;;;;;;;;11.70;96.50;;;;;;5073782;28;19908;-65
2021/07/17 11:42:07;;;;;;;;;;;11.70;96.70;;;;;;5074259;28;19912;-65
2021/07/17 11:44:36;;;;;;;;;;;11.70;96.50;;;;;;5073978;28;19928;-66
2021/07/17 11:47:08;;;;;;;;;;;11.70;96.50;;;;;;5073396;28;19991;-65
2021/07/17 11:49:36;;;;;;;;;;;11.70;96.10;;;;;;5073715;28;19920;-65
2021/07/17 11:52:04;;;;;;;;;;;11.70;96.70;;;;;;5073815;28;19916;-65
2021/07/17 11:54:31;;;;;;;;;;;11.70;97.20;;;;;;5073775;28;19962;-66
2021/07/17 11:57:05;;;;;;;;;;;11.60;96.50;;;;;;5073754;28;20317;-66
2021/07/17 11:59:32;;;;;;;;;;;11.50;96.70;;;;;;5073604;28;19920;-66
2021/07/17 12:02:08;;;;;;;;;;;11.60;97.30;;;;;;5073086;28;19909;-66
2021/07/17 12:04:38;;;;;;;;;;;11.60;97.30;;;;;;5073523;28;19909;-65
2021/07/17 12:07:09;;;;;;;;;;;11.60;97.50;;;;;;5073493;28;19919;-65
2021/07/17 12:09:37;;;;;;;;;;;11.60;97.30;;;;;;5073062;28;19908;-64
2021/07/17 12:12:12;;;;;;;;;;;11.70;97.60;;;;;;5073495;28;19924;-66
2021/07/17 12:14:39;;;;;;;;;;;11.70;96.90;;;;;;5073501;28;20378;-65
2021/07/17 12:17:06;;;;;;;;;;;11.70;97.20;;;;;;5073383;28;19916;-66
2021/07/17 12:19:33;;;;;;;;;;;11.60;96.90;;;;;;5073107;28;19938;-66
2021/07/17 12:22:00;;;;;;;;;;;11.60;97.40;;;;;;5073259;28;19964;-66
2021/07/17 12:24:26;;;;;;;;;;;11.60;97.30;;;;;;5073551;28;20355;-64
2021/07/17 12:27:05;;;;;;;;;;;11.60;97.50;;;;;;5073391;28;19915;-65
2021/07/17 12:29:35;;;;;;;;;;;11.60;97.50;;;;;;5073011;28;20480;-66
2021/07/17 12:32:04;;;;;;;;;;;11.50;97.30;;;;;;5073184;28;19919;-66
2021/07/17 12:34:31;;;;;;;;;;;11.60;97.70;;;;;;5071841;28;19919;-66
2021/07/17 12:36:57;;;;;;;;;;;11.50;97.70;;;;;;5073108;28;20007;-66
2021/07/17 12:39:24;;;;;;;;;;;11.50;97.80;;;;;;5072584;28;20348;-65
2021/07/17 12:41:53;;;;;;;;;;;11.50;98.20;;;;;;5072782;28;19919;-66
2021/07/17 12:44:20;;;;;;;;;;;11.50;98.20;;;;;;5072820;28;19952;-65
2021/07/17 12:46:52;;;;;;;;;;;11.60;98.20;;;;;;5072888;28;19940;-66
2021/07/17 12:49:21;;;;;;;;;;;11.60;98.50;;;;;;5072900;28;19909;-66
2021/07/17 12:51:49;;;;;;;;;;;11.50;98.20;;;;;;5072345;28;20321;-66
2021/07/17 12:54:16;;;;;;;;;;;11.60;98.20;;;;;;5072797;28;19923;-66
2021/07/17 12:56:55;;;;;;;;;;;11.50;98.20;;;;;;5072701;28;19962;-66
2021/07/17 12:59:29;;;;;;;;;;;11.50;98.80;;;;;;5072788;28;20409;-66
2021/07/17 13:01:58;;;;;;;;;;;11.50;98.70;;;;;;5072681;28;19908;-66
2021/07/17 13:04:26;;;;;;;;;;;11.50;98.50;;;;;;5072676;28;19930;-65
2021/07/17 13:06:55;;;;;;;;;;;11.50;98.90;;;;;;5072492;28;20256;-65
2021/07/17 13:09:32;;;;;;;;;;;11.50;99.00;;;;;;5072697;28;19913;-66
2021/07/17 13:11:59;;;;;;;;;;;11.50;99.40;;;;;;5072575;28;19929;-65
2021/07/17 13:14:26;;;;;;;;;;;11.50;99.10;;;;;;5072473;28;20405;-66
2021/07/17 13:16:53;;;;;;;;;;;11.50;99.00;;;;;;5072485;28;19944;-66
2021/07/17 13:19:24;;;;;;;;;;;11.50;99.00;;;;;;5072324;28;20330;-65
2021/07/17 13:21:51;;;;;;;;;;;11.50;99.70;;;;;;5072101;28;19913;-64
2021/07/17 13:24:20;;;;;;;;;;;11.60;99.40;;;;;;5072529;28;20330;-65
2021/07/17 13:26:54;;;;;;;;;;;11.60;99.20;;;;;;5072375;28;19908;-67
2021/07/17 13:29:25;;;;;;;;;;;11.60;99.10;;;;;;5072175;28;20282;-66
2021/07/17 13:31:57;;;;;;;;;;;11.60;99.50;;;;;;5071687;28;20007;-65
2021/07/17 13:34:25;;;;;;;;;;;11.70;99.50;;;;;;5072097;28;19913;-65
2021/07/17 13:37:09;;;;;;;;;;;11.60;99.40;;;;;;5072152;28;19985;-64
2021/07/17 13:39:54;;;;;;;;;;;11.60;99.40;;;;;;5081910;28;19954;-65
2021/07/17 13:42:22;;;;;;;;;;;11.60;99.70;;;;;;5072107;28;19962;-65
2021/07/17 13:44:49;;;;;;;;;;;11.70;99.80;;;;;;5072065;28;19921;-64
2021/07/17 13:47:17;;;;;;;;;;;11.70;99.70;;;;;;5072226;28;19908;-64
2021/07/17 13:49:44;;;;;;;;;;;11.70;99.70;;;;;;5071979;28;20371;-65
2021/07/17 13:52:29;;;;;;;;;;;11.60;99.90;;;;;;5076257;28;20019;-65
2021/07/17 13:54:55;;;;;;;;;;;11.70;99.80;;;;;;5076117;28;19913;-65
2021/07/17 13:57:22;;;;;;;;;;;11.70;99.20;;;;;;5076251;28;20552;-66
2021/07/17 14:00:07;;;;;;;;;;;11.80;99.20;;;;;;5075901;28;19995;-65
2021/07/17 14:02:34;;;;;;;;;;;11.80;99.50;;;;;;5076043;28;19977;-65
2021/07/17 14:05:02;;;;;;;;;;;11.80;99.50;;;;;;5076034;28;19999;-65
2021/07/17 14:07:29;;;;;;;;;;;11.80;99.40;;;;;;5075806;28;19909;-66
2021/07/17 14:09:55;;;;;;;;;;;11.80;99.70;;;;;;5075977;28;20007;-65
2021/07/17 14:12:25;;;;;;;;;;;11.80;99.50;;;;;;5075948;28;19939;-66
2021/07/17 14:14:53;;;;;;;;;;;11.80;99.70;;;;;;5075860;28;19919;-66
2021/07/17 14:17:20;;;;;;;;;;;11.80;99.30;;;;;;5075753;28;19908;-66
2021/07/17 14:19:47;;;;;;;;;;;11.70;99.40;;;;;;5075720;28;20294;-64
2021/07/17 14:22:13;;;;;;;;;;;11.70;99.50;;;;;;5075752;28;19909;-65